createdAt,value
2022-08-05T00:00:17.351Z,80.56
2022-08-05T00:02:50.882Z,80.68
2022-08-05T00:06:01.923Z,80.84
2022-08-05T00:08:32.655Z,80.27
2022-08-05T00:10:57.329Z,80.39
2022-08-05T00:13:39.084Z,80.75
2022-08-05T00:16:12.255Z,80.44
2022-08-05T00:18:42.525Z,80.01
2022-08-05T00:21:12.540Z,80.07
2022-08-05T00:23:46.307Z,80.17
2022-08-05T00:26:20.620Z,80.69
2022-08-05T00:28:47.550Z,80.91
2022-08-05T00:31:16.285Z,81.40
2022-08-05T00:34:54.889Z,81.06
2022-08-05T00:37:10.690Z,81.33
2022-08-05T00:39:16.963Z,81.33
2022-08-05T00:41:55.068Z,81.23
2022-08-05T00:44:30.663Z,81.50
2022-08-05T00:47:01.844Z,81.59
2022-08-05T00:49:44.350Z,81.67
2022-08-05T00:52:28.233Z,81.61
2022-08-05T00:54:56.308Z,82.00
2022-08-05T00:57:25.447Z,81.56
2022-08-05T00:59:58.904Z,81.79
2022-08-05T01:02:25.845Z,81.81
2022-08-05T01:04:52.721Z,82.52
2022-08-05T01:07:19.646Z,82.17
2022-08-05T01:09:46.724Z,82.29
2022-08-05T01:12:25.165Z,82.63
2022-08-05T01:15:35.480Z,82.11
2022-08-05T01:18:05.224Z,82.07
2022-08-05T01:20:58.042Z,82.36
2022-08-05T01:23:43.646Z,82.76
2022-08-05T01:26:31.867Z,82.68
2022-08-05T01:29:05.108Z,82.46
2022-08-05T01:31:49.706Z,83.07
2022-08-05T01:34:28.047Z,82.89
2022-08-05T01:37:24.697Z,83.26
2022-08-05T01:39:54.981Z,82.86
2022-08-05T01:42:27.771Z,82.93
2022-08-05T01:44:59.173Z,83.26
2022-08-05T01:47:38.555Z,83.08
2022-08-05T01:50:28.698Z,83.34
2022-08-05T01:53:01.572Z,83.10
2022-08-05T01:55:32.413Z,83.27
2022-08-05T01:58:12.358Z,83.39
2022-08-05T02:00:45.709Z,83.64
2022-08-05T02:03:31.333Z,83.27
2022-08-05T02:06:05.525Z,83.50
2022-08-05T02:08:57.912Z,83.70
2022-08-05T02:11:33.121Z,83.35
2022-08-05T02:14:17.614Z,83.36
2022-08-05T02:16:52.479Z,83.21
2022-08-05T02:19:46.940Z,83.45
2022-08-05T02:22:27.271Z,83.94
2022-08-05T02:25:05.100Z,84.03
2022-08-05T02:27:59.905Z,84.35
2022-08-05T02:30:26.898Z,84.49
2022-08-05T02:32:56.083Z,84.71
2022-08-05T02:35:28.175Z,84.19
2022-08-05T02:38:02.170Z,84.84
2022-08-05T02:40:31.523Z,84.33
2022-08-05T02:42:59.692Z,84.97
2022-08-05T02:45:28.646Z,84.87
2022-08-05T02:48:17.372Z,84.96
2022-08-05T02:50:47.417Z,84.80
2022-08-05T02:53:18.892Z,84.53
2022-08-05T02:56:00.093Z,84.51
2022-08-05T02:58:30.343Z,84.39
2022-08-05T03:01:00.768Z,84.59
2022-08-05T03:03:33.970Z,84.55
2022-08-05T03:06:54.921Z,84.52
2022-08-05T03:09:06.720Z,84.52
2022-08-05T03:11:57.093Z,84.09
2022-08-05T03:14:21.785Z,84.09
2022-08-05T03:16:48.793Z,83.73
2022-08-05T03:19:33.174Z,83.89
2022-08-05T03:22:01.637Z,83.75
2022-08-05T03:24:30.913Z,83.57
2022-08-05T03:26:59.409Z,83.42
2022-08-05T03:29:44.353Z,83.11
2022-08-05T03:32:14.388Z,83.98
2022-08-05T03:34:50.820Z,83.66
2022-08-05T03:37:20.579Z,83.38
2022-08-05T03:40:01.765Z,83.39
2022-08-05T03:42:32.966Z,83.00
2022-08-05T03:45:21.857Z,83.16
2022-08-05T03:47:51.169Z,82.77
2022-08-05T03:50:18.362Z,82.83
2022-08-05T03:55:06.866Z,82.37
2022-08-05T03:56:35.894Z,82.37
2022-08-05T03:59:06.450Z,82.13
2022-08-05T04:01:37.855Z,82.01
2022-08-05T04:04:09.890Z,82.01
2022-08-05T04:06:38.430Z,82.14
2022-08-05T04:09:15.925Z,81.77
2022-08-05T04:11:53.437Z,81.70
2022-08-05T04:14:30.089Z,81.37
2022-08-05T04:17:00.194Z,81.29
2022-08-05T04:19:31.191Z,81.81
2022-08-05T04:22:09.849Z,81.57
2022-08-05T04:24:52.324Z,81.62
2022-08-05T04:27:41.516Z,81.58
2022-08-05T04:30:09.151Z,81.52
2022-08-05T04:32:36.678Z,81.73
2022-08-05T04:35:05.217Z,81.81
2022-08-05T04:38:02.105Z,81.68
2022-08-05T04:40:21.529Z,81.62
2022-08-05T04:42:48.944Z,81.30
2022-08-05T04:45:31.109Z,81.08
2022-08-05T04:48:05.438Z,81.18
2022-08-05T04:51:03.075Z,81.04
2022-08-05T04:53:25.409Z,81.46
2022-08-05T04:56:15.129Z,81.30
2022-08-05T04:58:39.265Z,81.05
2022-08-05T05:01:06.546Z,81.87
2022-08-05T05:03:42.329Z,81.43
2022-08-05T05:06:39.382Z,81.51
2022-08-05T05:08:59.908Z,81.72
2022-08-05T05:11:41.550Z,81.71
2022-08-05T05:14:15.966Z,81.56
2022-08-05T05:16:43.291Z,81.27
2022-08-05T05:19:19.366Z,81.39
2022-08-05T05:21:50.402Z,81.62
2022-08-05T05:24:22.555Z,81.33
2022-08-05T05:27:09.452Z,81.13
2022-08-05T05:30:04.496Z,81.60
2022-08-05T05:32:24.084Z,81.12
2022-08-05T05:34:52.964Z,81.16
2022-08-05T05:37:20.650Z,81.16
2022-08-05T05:39:56.104Z,82.01
2022-08-05T05:42:23.385Z,82.03
2022-08-05T05:44:51.090Z,81.82
2022-08-05T05:47:22.113Z,81.73
2022-08-05T05:49:56.982Z,82.16
2022-08-05T05:52:34.525Z,82.04
2022-08-05T05:55:13.397Z,82.19
2022-08-05T05:57:52.909Z,82.09
2022-08-05T06:00:21.702Z,81.61
2022-08-05T06:02:58.565Z,82.60
2022-08-05T06:05:25.808Z,82.14
2022-08-05T06:07:57.884Z,82.16
2022-08-05T06:10:29.228Z,82.68
2022-08-05T06:12:56.507Z,82.49
2022-08-05T06:15:25.128Z,82.90
2022-08-05T06:18:11.973Z,82.66
2022-08-05T06:20:38.883Z,81.99
2022-08-05T06:23:05.728Z,82.20
2022-08-05T06:26:12.424Z,82.21
2022-08-05T06:28:21.266Z,81.76
2022-08-05T06:30:48.861Z,81.82
2022-08-05T06:33:19.398Z,82.18
2022-08-05T06:36:07.684Z,81.76
2022-08-05T06:38:37.273Z,82.52
2022-08-05T06:41:07.693Z,83.24
2022-08-05T06:43:58.622Z,83.60
2022-08-05T06:46:22.843Z,83.12
2022-08-05T06:48:59.038Z,83.92
2022-08-05T06:51:30.161Z,84.12
2022-08-05T06:54:02.893Z,83.92
2022-08-05T06:56:34.116Z,84.24
2022-08-05T06:59:02.166Z,84.81
2022-08-05T07:01:32.363Z,84.53
2022-08-05T07:04:02.186Z,84.46
2022-08-05T07:06:29.382Z,84.73
2022-08-05T07:08:59.030Z,84.42
2022-08-05T07:11:28.835Z,84.68
2022-08-05T07:14:20.541Z,85.00
2022-08-05T07:17:58.836Z,84.83
2022-08-05T07:22:35.844Z,84.16
2022-08-05T07:25:23.058Z,84.32
2022-08-05T07:27:58.272Z,84.23
2022-08-05T07:30:38.429Z,84.49
2022-08-05T07:33:16.122Z,84.82
2022-08-05T07:36:04.336Z,84.49
2022-08-05T07:38:43.208Z,83.65
2022-08-05T07:42:07.246Z,83.00
2022-08-05T07:44:05.523Z,84.10
2022-08-05T07:46:38.861Z,83.71
2022-08-05T07:49:07.959Z,83.50
2022-08-05T07:51:40.826Z,83.79
2022-08-05T07:54:26.583Z,83.63
2022-08-05T07:57:13.575Z,84.12
2022-08-05T07:59:44.180Z,84.01
2022-08-05T08:02:15.969Z,84.63
2022-08-05T08:04:49.250Z,84.48
2022-08-05T08:07:22.428Z,85.37
2022-08-05T08:09:52.599Z,84.61
2022-08-05T08:12:35.103Z,83.94
2022-08-05T08:15:09.743Z,83.15
2022-08-05T08:17:46.252Z,82.91
2022-08-05T08:20:44.174Z,83.09
2022-08-05T08:23:04.920Z,82.29
2022-08-05T08:25:59.774Z,82.23
2022-08-05T08:28:35.478Z,81.61
2022-08-05T08:31:06.319Z,81.69
2022-08-05T08:33:37.611Z,81.04
2022-08-05T08:36:38.539Z,81.75
2022-08-05T08:38:56.999Z,81.17
2022-08-05T08:41:50.872Z,81.23
2022-08-05T08:45:22.541Z,80.88
2022-08-05T08:47:46.970Z,82.17
2022-08-05T08:50:22.533Z,80.25
2022-08-05T08:52:43.692Z,80.20
2022-08-05T08:55:19.543Z,80.14
2022-08-05T08:58:05.585Z,80.14
2022-08-05T09:00:33.788Z,79.58
2022-08-05T09:03:05.776Z,78.53
2022-08-05T09:05:38.482Z,78.94
2022-08-05T09:08:27.502Z,79.33
2022-08-05T09:10:59.064Z,79.17
2022-08-05T09:13:31.787Z,78.66
2022-08-05T09:16:14.716Z,79.35
2022-08-05T09:18:44.519Z,79.37
2022-08-05T09:21:20.885Z,79.30
2022-08-05T09:24:08.721Z,79.43
2022-08-05T09:26:37.441Z,79.84
2022-08-05T09:29:07.019Z,80.39
2022-08-05T09:32:40.352Z,80.83
2022-08-05T09:34:23.050Z,80.36
2022-08-05T09:36:55.251Z,81.17
2022-08-05T09:39:41.167Z,81.20
2022-08-05T09:42:24.364Z,80.94
2022-08-05T09:44:55.996Z,81.04
2022-08-05T09:47:30.665Z,80.82
2022-08-05T09:50:13.792Z,79.93
2022-08-05T09:52:45.784Z,80.65
2022-08-05T09:55:57.261Z,81.55
2022-08-05T09:58:13.357Z,83.42
2022-08-05T10:00:52.471Z,83.64
2022-08-05T10:03:19.501Z,84.20
2022-08-05T10:05:47.845Z,84.61
2022-08-05T10:08:35.948Z,84.49
2022-08-05T10:11:13.509Z,84.54
2022-08-05T10:13:47.751Z,84.52
2022-08-05T10:16:41.685Z,84.32
2022-08-05T10:19:23.304Z,84.40
2022-08-05T10:21:58.912Z,84.50
2022-08-05T10:24:26.993Z,84.49
2022-08-05T10:27:00.472Z,84.58
2022-08-05T10:30:41.829Z,84.71
2022-08-05T10:33:00.860Z,84.55
2022-08-05T10:35:03.921Z,84.93
2022-08-05T10:37:40.498Z,84.55
2022-08-05T10:40:31.667Z,84.75
2022-08-05T10:43:06.345Z,84.32
2022-08-05T10:45:40.090Z,83.95
2022-08-05T10:48:30.130Z,84.25
2022-08-05T10:51:01.484Z,84.14
2022-08-05T10:53:38.006Z,84.55
2022-08-05T10:56:21.387Z,83.91
2022-08-05T10:58:55.695Z,84.05
2022-08-05T11:01:54.144Z,84.00
2022-08-05T11:04:23.326Z,84.45
2022-08-05T11:07:04.873Z,83.39
2022-08-05T11:09:46.551Z,83.39
2022-08-05T11:12:50.479Z,82.62
2022-08-05T11:15:21.511Z,81.79
2022-08-05T11:18:00.484Z,82.08
2022-08-05T11:20:45.105Z,81.91
2022-08-05T11:23:33.568Z,80.69
2022-08-05T11:26:27.747Z,80.85
2022-08-05T11:28:56.657Z,80.40
2022-08-05T11:31:58.789Z,81.68
2022-08-05T11:34:36.862Z,81.77
2022-08-05T11:37:06.240Z,80.94
2022-08-05T11:39:55.465Z,81.36
2022-08-05T11:42:28.238Z,80.68
2022-08-05T11:45:03.202Z,80.79
2022-08-05T11:47:48.600Z,80.40
2022-08-05T11:50:17.847Z,79.85
2022-08-05T11:52:48.442Z,79.87
2022-08-05T11:55:16.583Z,79.46
2022-08-05T11:58:10.616Z,79.56
2022-08-05T12:00:38.454Z,79.46
2022-08-05T12:03:16.655Z,79.40
2022-08-05T12:05:58.555Z,80.33
2022-08-05T12:08:25.307Z,80.59
2022-08-05T12:10:53.929Z,80.22
2022-08-05T12:13:47.468Z,79.89
2022-08-05T12:16:15.594Z,79.62
2022-08-05T12:18:49.477Z,79.27
2022-08-05T12:21:30.172Z,79.84
2022-08-05T12:24:09.755Z,80.69
2022-08-05T12:26:52.635Z,79.15
2022-08-05T12:29:23.139Z,80.20
2022-08-05T12:31:57.916Z,80.08
2022-08-05T12:34:32.565Z,79.31
2022-08-05T12:37:06.545Z,79.24
2022-08-05T12:39:37.510Z,78.95
2022-08-05T12:42:17.649Z,78.75
2022-08-05T12:44:45.076Z,78.75
2022-08-05T12:47:25.455Z,77.93
2022-08-05T12:50:03.389Z,79.98
2022-08-05T12:52:38.516Z,79.52
2022-08-05T12:55:21.846Z,79.84
2022-08-05T12:58:48.202Z,79.40
2022-08-05T13:02:03.460Z,79.76
2022-08-05T13:03:32.610Z,80.14
2022-08-05T13:06:01.557Z,79.45
2022-08-05T13:08:30.282Z,79.33
2022-08-05T13:11:02.146Z,80.56
2022-08-05T13:14:05.714Z,80.64
2022-08-05T13:16:19.524Z,80.11
2022-08-05T13:18:57.968Z,80.57
2022-08-05T13:21:28.531Z,81.56
2022-08-05T13:24:08.757Z,80.35
2022-08-05T13:26:36.277Z,79.97
2022-08-05T13:29:05.171Z,79.49
2022-08-05T13:32:02.827Z,78.14
2022-08-05T13:34:25.935Z,78.30
2022-08-05T13:36:54.131Z,78.82
2022-08-05T13:40:13.488Z,78.34
2022-08-05T13:42:14.736Z,78.56
2022-08-05T13:44:46.379Z,78.92
2022-08-05T13:47:35.457Z,78.83
2022-08-05T13:50:06.388Z,78.36
2022-08-05T13:52:35.949Z,77.17
2022-08-05T13:55:07.473Z,78.18
2022-08-05T13:57:51.308Z,76.57
2022-08-05T14:00:27.241Z,77.98
2022-08-05T14:02:56.853Z,78.07
2022-08-05T14:05:48.343Z,77.27
2022-08-05T14:08:20.907Z,77.19
2022-08-05T14:11:03.125Z,78.27
2022-08-05T14:13:41.594Z,78.35
2022-08-05T14:16:11.470Z,79.78
2022-08-05T14:18:38.623Z,80.01
2022-08-05T14:22:08.210Z,80.31
2022-08-05T14:23:53.143Z,81.05
2022-08-05T14:26:38.420Z,80.43
2022-08-05T14:29:16.244Z,81.79
2022-08-05T14:32:03.944Z,81.34
2022-08-05T14:34:35.394Z,81.30
2022-08-05T14:37:03.740Z,81.88
2022-08-05T14:39:49.277Z,82.49
2022-08-05T14:42:21.011Z,81.57
2022-08-05T14:44:49.398Z,82.03
2022-08-05T14:47:16.988Z,81.60
2022-08-05T14:50:17.784Z,81.43
2022-08-05T14:52:57.748Z,80.61
2022-08-05T14:55:38.630Z,79.62
2022-08-05T14:58:11.782Z,80.78
2022-08-05T15:00:58.035Z,79.30
2022-08-05T15:03:33.949Z,79.86
2022-08-05T15:06:13.188Z,79.69
2022-08-05T15:09:01.210Z,79.80
2022-08-05T15:11:51.573Z,80.94
2022-08-05T15:14:34.719Z,81.50
2022-08-05T15:17:05.213Z,82.05
2022-08-05T15:19:37.314Z,82.94
2022-08-05T15:22:08.860Z,81.95
2022-08-05T15:24:36.525Z,81.26
2022-08-05T15:27:09.140Z,81.33
2022-08-05T15:29:41.848Z,79.58
2022-08-05T15:32:09.260Z,79.66
2022-08-05T15:34:36.179Z,79.90
2022-08-05T15:37:06.924Z,80.24
2022-08-05T15:41:04.305Z,79.82
2022-08-05T15:42:55.230Z,80.39
2022-08-05T15:45:18.726Z,79.49
2022-08-05T15:48:05.049Z,80.20
2022-08-05T15:50:33.638Z,79.24
2022-08-05T15:53:04.122Z,80.08
2022-08-05T15:56:02.043Z,79.69
2022-08-05T15:58:19.672Z,79.16
2022-08-05T16:01:03.416Z,78.75
2022-08-05T16:03:40.932Z,79.13
2022-08-05T16:06:11.342Z,78.44
2022-08-05T16:08:39.932Z,78.72
2022-08-05T16:11:08.921Z,77.95
2022-08-05T16:13:35.981Z,77.58
2022-08-05T16:16:04.157Z,76.99
2022-08-05T16:18:33.108Z,76.81
2022-08-05T16:21:04.260Z,76.28
2022-08-05T16:23:32.957Z,75.17
2022-08-05T16:26:20.068Z,75.55
2022-08-05T16:28:53.569Z,73.94
2022-08-05T16:31:21.592Z,74.06
2022-08-05T16:33:48.910Z,75.05
2022-08-05T16:36:20.483Z,75.69
2022-08-05T16:38:54.483Z,74.70
2022-08-05T16:42:15.105Z,74.26
2022-08-05T16:44:11.108Z,73.88
2022-08-05T16:46:41.095Z,73.77
2022-08-05T16:49:09.925Z,73.64
2022-08-05T16:51:42.562Z,74.03
2022-08-05T16:54:25.803Z,72.98
2022-08-05T16:56:55.622Z,73.65
2022-08-05T16:59:23.302Z,73.80
2022-08-05T17:01:54.673Z,73.87
2022-08-05T17:04:26.576Z,73.81
2022-08-05T17:06:55.449Z,72.93
2022-08-05T17:09:23.176Z,74.20
2022-08-05T17:11:56.039Z,73.83
2022-08-05T17:14:36.955Z,73.28
2022-08-05T17:17:14.444Z,72.30
2022-08-05T17:19:45.540Z,71.41
2022-08-05T17:22:17.783Z,71.60
2022-08-05T17:24:57.968Z,71.78
2022-08-05T17:27:33.712Z,71.31
2022-08-05T17:30:12.191Z,70.66
2022-08-05T17:32:45.629Z,71.61
2022-08-05T17:35:15.501Z,71.46
2022-08-05T17:37:48.376Z,71.59
2022-08-05T17:40:17.260Z,71.42
2022-08-05T17:42:51.884Z,71.29
2022-08-05T17:45:22.169Z,71.58
2022-08-05T17:47:54.661Z,70.22
2022-08-05T17:50:28.869Z,70.32
2022-08-05T17:52:59.169Z,71.23
2022-08-05T17:55:27.217Z,71.28
2022-08-05T17:58:02.206Z,72.27
2022-08-05T18:00:29.806Z,72.61
2022-08-05T18:02:57.314Z,72.95
2022-08-05T18:05:28.051Z,72.98
2022-08-05T18:07:56.750Z,73.57
2022-08-05T18:10:23.914Z,73.77
2022-08-05T18:12:51.665Z,74.04
2022-08-05T18:15:19.022Z,74.54
2022-08-05T18:17:59.599Z,74.60
2022-08-05T18:20:32.044Z,74.15
2022-08-05T18:23:00.600Z,74.88
2022-08-05T18:25:39.101Z,75.34
2022-08-05T18:28:09.832Z,76.86
2022-08-05T18:30:39.027Z,77.01
2022-08-05T18:33:08.457Z,78.51
2022-08-05T18:35:59.993Z,78.13
2022-08-05T18:38:25.935Z,78.59
2022-08-05T18:41:56.461Z,78.35
2022-08-05T18:43:42.764Z,78.82
2022-08-05T18:46:15.942Z,79.30
2022-08-05T18:48:51.859Z,79.79
2022-08-05T18:52:05.360Z,80.01
2022-08-05T18:54:31.724Z,80.49
2022-08-05T18:57:02.597Z,80.15
2022-08-05T18:59:43.441Z,80.52
2022-08-05T19:02:28.671Z,80.36
2022-08-05T19:06:06.023Z,80.35
2022-08-05T19:07:55.313Z,79.54
2022-08-05T19:10:27.839Z,79.37
2022-08-05T19:12:56.972Z,78.88
2022-08-05T19:15:54.643Z,79.01
2022-08-05T19:18:20.643Z,79.22
2022-08-05T19:20:51.542Z,79.74
2022-08-05T19:24:04.286Z,80.59
2022-08-05T19:26:05.382Z,80.44
2022-08-05T19:28:42.122Z,81.28
2022-08-05T19:31:13.196Z,81.04
2022-08-05T19:33:48.302Z,80.83
2022-08-05T19:36:27.078Z,81.14
2022-08-05T19:39:01.180Z,81.49
2022-08-05T19:41:58.231Z,81.62
2022-08-05T19:44:19.200Z,81.84
2022-08-05T19:46:46.132Z,81.59
2022-08-05T19:49:16.867Z,81.26
2022-08-05T19:52:08.391Z,81.31
2022-08-05T19:54:34.671Z,81.22
2022-08-05T19:57:09.660Z,81.10
2022-08-05T19:59:56.320Z,80.90
2022-08-05T20:02:26.839Z,80.92
2022-08-05T20:04:55.601Z,80.61
2022-08-05T20:07:46.591Z,80.51
2022-08-05T20:10:14.494Z,80.46
2022-08-05T20:12:47.625Z,79.88
2022-08-05T20:15:48.099Z,80.54
2022-08-05T20:18:10.873Z,81.17
2022-08-05T20:20:52.157Z,81.94
2022-08-05T20:23:23.686Z,83.97
2022-08-05T20:26:08.980Z,83.92
2022-08-05T20:28:48.727Z,83.81
2022-08-05T20:31:17.070Z,83.04
2022-08-05T20:33:45.340Z,83.20
2022-08-05T20:36:14.309Z,82.89
2022-08-05T20:38:53.841Z,82.35
2022-08-05T20:41:27.445Z,81.84
2022-08-05T20:44:18.847Z,81.77
2022-08-05T20:47:03.542Z,82.73
2022-08-05T20:49:38.106Z,81.80
2022-08-05T20:52:08.539Z,82.28
2022-08-05T20:54:43.442Z,82.87
2022-08-05T20:57:41.803Z,82.76
2022-08-05T21:00:41.591Z,82.87
2022-08-05T21:03:04.505Z,82.55
2022-08-05T21:05:47.824Z,82.12
2022-08-05T21:08:28.140Z,81.72
2022-08-05T21:11:11.572Z,81.14
2022-08-05T21:13:47.512Z,81.25
2022-08-05T21:16:29.862Z,81.01
2022-08-05T21:19:01.680Z,81.25
2022-08-05T21:21:39.178Z,80.80
2022-08-05T21:24:07.326Z,81.30
2022-08-05T21:26:34.159Z,81.52
2022-08-05T21:29:03.708Z,80.45
2022-08-05T21:31:41.474Z,81.17
2022-08-05T21:34:10.587Z,81.61
2022-08-05T21:36:39.443Z,82.22
2022-08-05T21:39:10.187Z,81.40
2022-08-05T21:41:41.873Z,80.62
2022-08-05T21:44:27.089Z,79.91
2022-08-05T21:46:57.919Z,80.15
2022-08-05T21:50:00.030Z,80.04
2022-08-05T21:52:21.625Z,79.60
2022-08-05T21:54:57.171Z,79.19
2022-08-05T21:57:32.708Z,78.75
2022-08-05T22:00:05.385Z,78.08
2022-08-05T22:02:34.456Z,78.72
2022-08-05T22:05:01.734Z,77.35
2022-08-05T22:07:39.834Z,76.66
2022-08-05T22:10:26.573Z,77.55
2022-08-05T22:12:59.152Z,79.46
2022-08-05T22:16:00.481Z,79.76
2022-08-05T22:18:25.791Z,78.43
2022-08-05T22:20:53.754Z,78.96
2022-08-05T22:24:03.007Z,79.85
2022-08-05T22:26:49.990Z,80.00
2022-08-05T22:29:19.049Z,77.92
2022-08-05T22:31:55.229Z,78.95
2022-08-05T22:34:28.502Z,78.95
2022-08-05T22:36:58.338Z,80.36
2022-08-05T22:39:32.505Z,78.85
2022-08-05T22:42:10.470Z,78.76
2022-08-05T22:44:48.243Z,79.42
2022-08-05T22:47:28.896Z,78.27
2022-08-05T22:50:19.423Z,77.32
2022-08-05T22:52:46.807Z,78.35
2022-08-05T22:55:18.284Z,77.88
2022-08-05T22:57:49.087Z,75.70
2022-08-05T23:00:18.310Z,75.62
2022-08-05T23:02:48.843Z,73.17
2022-08-05T23:05:16.099Z,73.90
2022-08-05T23:07:45.407Z,74.22
2022-08-05T23:10:20.230Z,74.35
2022-08-05T23:12:54.570Z,74.58
2022-08-05T23:15:29.364Z,75.38
2022-08-05T23:18:00.585Z,74.53
2022-08-05T23:20:37.027Z,74.67
2022-08-05T23:23:05.896Z,74.38
2022-08-05T23:25:53.471Z,74.69
2022-08-05T23:28:28.545Z,75.91
2022-08-05T23:30:56.780Z,77.05
2022-08-05T23:34:04.255Z,77.89
2022-08-05T23:36:39.951Z,78.00
2022-08-05T23:39:17.150Z,77.61
2022-08-05T23:41:50.949Z,77.30
2022-08-05T23:44:19.745Z,78.24
2022-08-05T23:46:49.806Z,78.30
2022-08-05T23:49:23.897Z,77.79
2022-08-05T23:52:19.569Z,77.24
2022-08-05T23:54:49.340Z,77.60
2022-08-05T23:57:16.423Z,77.23
